sensor_id;sensor_type;location;lat;lon;timestamp;P1;durP1;ratioP1;P2;durP2;ratioP2
2201;SDS011;1107;48.654;9.250;2022-12-16T04:03:59;25.35;;;14.50;;
2201;SDS011;1107;48.654;9.250;2022-12-16T04:06:26;38.95;;;13.90;;
2201;SDS011;1107;48.654;9.250;2022-12-16T04:08:54;34.70;;;13.80;;
2201;SDS011;1107;48.654;9.250;2022-12-16T04:11:21;32.92;;;13.50;;
2201;SDS011;1107;48.654;9.250;2022-12-16T04:14:06;32.17;;;14.38;;
2201;SDS011;1107;48.654;9.250;2022-12-16T04:16:51;25.20;;;12.25;;
2201;SDS011;1107;48.654;9.250;2022-12-16T04:19:35;38.63;;;14.27;;
2201;SDS011;1107;48.654;9.250;2022-12-16T04:22:21;31.35;;;13.75;;
2201;SDS011;1107;48.654;9.250;2022-12-16T04:25:11;26.92;;;13.93;;
2201;SDS011;1107;48.654;9.250;2022-12-16T04:27:41;34.20;;;14.23;;
2201;SDS011;1107;48.654;9.250;2022-12-16T04:30:11;22.20;;;12.90;;
2201;SDS011;1107;48.654;9.250;2022-12-16T04:32:45;36.78;;;14.15;;
2201;SDS011;1107;48.654;9.250;2022-12-16T04:35:30;28.48;;;13.75;;
2201;SDS011;1107;48.654;9.250;2022-12-16T04:38:15;28.58;;;13.38;;
2201;SDS011;1107;48.654;9.250;2022-12-16T04:41:00;20.60;;;12.18;;
2201;SDS011;1107;48.654;9.250;2022-12-16T04:43:44;26.60;;;14.48;;
2201;SDS011;1107;48.654;9.250;2022-12-16T04:46:29;27.25;;;12.85;;
2201;SDS011;1107;48.654;9.250;2022-12-16T04:49:13;25.38;;;12.70;;
2201;SDS011;1107;48.654;9.250;2022-12-16T04:51:57;25.25;;;13.27;;
2201;SDS011;1107;48.654;9.250;2022-12-16T04:54:41;27.88;;;12.15;;
2201;SDS011;1107;48.654;9.250;2022-12-16T04:57:27;37.45;;;13.52;;
2201;SDS011;1107;48.654;9.250;2022-12-16T05:00:12;22.08;;;12.32;;
2201;SDS011;1107;48.654;9.250;2022-12-16T05:57:47;19.60;;;10.95;;
2201;SDS011;1107;48.654;9.250;2022-12-16T06:00:32;20.55;;;10.32;;
2201;SDS011;1107;48.654;9.250;2022-12-16T06:03:17;14.48;;;9.75;;
2201;SDS011;1107;48.654;9.250;2022-12-16T06:06:01;23.20;;;10.45;;
2201;SDS011;1107;48.654;9.250;2022-12-16T06:08:46;22.13;;;11.32;;
2201;SDS011;1107;48.654;9.250;2022-12-16T06:11:30;23.80;;;13.10;;
2201;SDS011;1107;48.654;9.250;2022-12-16T06:14:15;24.48;;;12.40;;
2201;SDS011;1107;48.654;9.250;2022-12-16T06:16:59;21.77;;;10.65;;
2201;SDS011;1107;48.654;9.250;2022-12-16T06:19:45;20.75;;;11.43;;
2201;SDS011;1107;48.654;9.250;2022-12-16T06:22:30;25.80;;;12.18;;
2201;SDS011;1107;48.654;9.250;2022-12-16T06:25:14;28.50;;;12.68;;
2201;SDS011;1107;48.654;9.250;2022-12-16T06:27:59;24.15;;;12.38;;
2201;SDS011;1107;48.654;9.250;2022-12-16T06:30:43;26.70;;;12.05;;
2201;SDS011;1107;48.654;9.250;2022-12-16T06:33:27;23.42;;;11.73;;
2201;SDS011;1107;48.654;9.250;2022-12-16T06:36:13;22.35;;;10.98;;
2201;SDS011;1107;48.654;9.250;2022-12-16T06:38:57;19.15;;;10.88;;
2201;SDS011;1107;48.654;9.250;2022-12-16T06:41:42;45.80;;;11.65;;
2201;SDS011;1107;48.654;9.250;2022-12-16T06:44:26;22.33;;;10.82;;
2201;SDS011;1107;48.654;9.250;2022-12-16T06:47:10;17.63;;;10.63;;
2201;SDS011;1107;48.654;9.250;2022-12-16T06:49:55;25.63;;;12.10;;
2201;SDS011;1107;48.654;9.250;2022-12-16T06:52:41;16.80;;;10.98;;
2201;SDS011;1107;48.654;9.250;2022-12-16T06:55:26;12.43;;;9.65;;
2201;SDS011;1107;48.654;9.250;2022-12-16T06:58:11;18.02;;;9.07;;
2201;SDS011;1107;48.654;9.250;2022-12-16T09:48:20;16.95;;;7.00;;
2201;SDS011;1107;48.654;9.250;2022-12-16T09:51:11;10.15;;;6.50;;
2201;SDS011;1107;48.654;9.250;2022-12-16T09:53:58;10.07;;;6.72;;
2201;SDS011;1107;48.654;9.250;2022-12-16T09:56:44;8.93;;;6.93;;
2201;SDS011;1107;48.654;9.250;2022-12-16T09:59:30;12.50;;;5.70;;
2201;SDS011;1107;48.654;9.250;2022-12-16T10:02:19;11.85;;;7.00;;
2201;SDS011;1107;48.654;9.250;2022-12-16T10:05:07;7.97;;;7.18;;
2201;SDS011;1107;48.654;9.250;2022-12-16T10:07:55;13.27;;;6.57;;
2201;SDS011;1107;48.654;9.250;2022-12-16T10:10:49;7.20;;;6.03;;
2201;SDS011;1107;48.654;9.250;2022-12-16T10:13:43;7.13;;;5.60;;
2201;SDS011;1107;48.654;9.250;2022-12-16T10:16:36;7.35;;;5.63;;
2201;SDS011;1107;48.654;9.250;2022-12-16T10:19:31;8.25;;;5.90;;
2201;SDS011;1107;48.654;9.250;2022-12-16T10:22:23;6.53;;;5.05;;
2201;SDS011;1107;48.654;9.250;2022-12-16T10:25:17;6.90;;;6.22;;
2201;SDS011;1107;48.654;9.250;2022-12-16T10:28:05;8.57;;;6.00;;
2201;SDS011;1107;48.654;9.250;2022-12-16T10:30:58;7.47;;;5.95;;
2201;SDS011;1107;48.654;9.250;2022-12-16T11:43:46;10.27;;;6.60;;
2201;SDS011;1107;48.654;9.250;2022-12-16T11:46:34;9.63;;;6.55;;
2201;SDS011;1107;48.654;9.250;2022-12-16T14:05:46;6.65;;;5.15;;
2201;SDS011;1107;48.654;9.250;2022-12-16T14:08:34;8.45;;;5.50;;
2201;SDS011;1107;48.654;9.250;2022-12-16T14:11:21;6.13;;;5.57;;
2201;SDS011;1107;48.654;9.250;2022-12-16T14:14:15;6.30;;;5.88;;
2201;SDS011;1107;48.654;9.250;2022-12-16T14:17:08;5.65;;;5.25;;
2201;SDS011;1107;48.654;9.250;2022-12-16T14:19:59;6.53;;;6.03;;
2201;SDS011;1107;48.654;9.250;2022-12-16T14:22:54;6.40;;;5.68;;
2201;SDS011;1107;48.654;9.250;2022-12-16T14:25:44;5.57;;;5.10;;
2201;SDS011;1107;48.654;9.250;2022-12-16T14:28:30;14.05;;;4.93;;
2201;SDS011;1107;48.654;9.250;2022-12-16T14:31:17;8.63;;;5.40;;
2201;SDS011;1107;48.654;9.250;2022-12-16T14:34:10;8.38;;;6.03;;
2201;SDS011;1107;48.654;9.250;2022-12-16T14:37:06;11.90;;;5.55;;
2201;SDS011;1107;48.654;9.250;2022-12-16T14:39:55;6.60;;;4.47;;
2201;SDS011;1107;48.654;9.250;2022-12-16T14:42:40;7.43;;;5.13;;
2201;SDS011;1107;48.654;9.250;2022-12-16T14:45:27;9.13;;;5.47;;
2201;SDS011;1107;48.654;9.250;2022-12-16T14:48:23;7.93;;;5.85;;
2201;SDS011;1107;48.654;9.250;2022-12-16T14:51:22;7.47;;;5.43;;
2201;SDS011;1107;48.654;9.250;2022-12-16T14:54:21;11.27;;;6.78;;
2201;SDS011;1107;48.654;9.250;2022-12-16T14:57:12;12.05;;;6.45;;
2201;SDS011;1107;48.654;9.250;2022-12-16T15:00:00;8.38;;;5.15;;
2201;SDS011;1107;48.654;9.250;2022-12-16T15:02:55;6.15;;;5.55;;
2201;SDS011;1107;48.654;9.250;2022-12-16T15:05:43;6.35;;;4.95;;
2201;SDS011;1107;48.654;9.250;2022-12-16T15:08:28;8.98;;;5.97;;
2201;SDS011;1107;48.654;9.250;2022-12-16T15:11:17;8.80;;;5.75;;
2201;SDS011;1107;48.654;9.250;2022-12-16T15:14:04;8.35;;;5.53;;
2201;SDS011;1107;48.654;9.250;2022-12-16T15:16:50;7.18;;;5.65;;
2201;SDS011;1107;48.654;9.250;2022-12-16T15:19:37;5.90;;;5.30;;
2201;SDS011;1107;48.654;9.250;2022-12-16T15:22:26;7.10;;;5.95;;
2201;SDS011;1107;48.654;9.250;2022-12-16T15:25:17;5.88;;;5.07;;
2201;SDS011;1107;48.654;9.250;2022-12-16T15:28:03;6.60;;;5.90;;
2201;SDS011;1107;48.654;9.250;2022-12-16T15:30:48;11.10;;;6.47;;
2201;SDS011;1107;48.654;9.250;2022-12-16T15:33:34;7.50;;;5.15;;
2201;SDS011;1107;48.654;9.250;2022-12-16T15:36:25;12.38;;;6.75;;
2201;SDS011;1107;48.654;9.250;2022-12-16T15:39:18;5.03;;;4.55;;
2201;SDS011;1107;48.654;9.250;2022-12-16T15:42:04;7.40;;;6.25;;
2201;SDS011;1107;48.654;9.250;2022-12-16T18:16:33;16.17;;;7.78;;
2201;SDS011;1107;48.654;9.250;2022-12-16T18:19:19;6.70;;;6.10;;
2201;SDS011;1107;48.654;9.250;2022-12-16T18:24:47;7.88;;;6.03;;
2201;SDS011;1107;48.654;9.250;2022-12-16T18:27:32;6.68;;;5.95;;
2201;SDS011;1107;48.654;9.250;2022-12-16T18:30:18;8.68;;;6.00;;
2201;SDS011;1107;48.654;9.250;2022-12-16T18:33:02;7.75;;;6.50;;
2201;SDS011;1107;48.654;9.250;2022-12-16T18:35:48;8.63;;;5.85;;
2201;SDS011;1107;48.654;9.250;2022-12-16T18:38:38;6.60;;;5.90;;
2201;SDS011;1107;48.654;9.250;2022-12-16T18:41:22;10.60;;;6.60;;
2201;SDS011;1107;48.654;9.250;2022-12-16T18:44:08;6.93;;;6.22;;
2201;SDS011;1107;48.654;9.250;2022-12-16T18:46:54;13.60;;;9.50;;
2201;SDS011;1107;48.654;9.250;2022-12-16T18:49:38;13.30;;;7.78;;
2201;SDS011;1107;48.654;9.250;2022-12-16T19:39:07;8.88;;;6.30;;
2201;SDS011;1107;48.654;9.250;2022-12-16T19:41:53;9.20;;;7.28;;
2201;SDS011;1107;48.654;9.250;2022-12-16T19:44:46;8.35;;;6.50;;
2201;SDS011;1107;48.654;9.250;2022-12-16T19:47:31;17.00;;;7.68;;
2201;SDS011;1107;48.654;9.250;2022-12-16T19:50:15;11.43;;;7.07;;
2201;SDS011;1107;48.654;9.250;2022-12-16T23:13:59;11.25;;;7.50;;
2201;SDS011;1107;48.654;9.250;2022-12-16T23:16:44;7.40;;;6.28;;
2201;SDS011;1107;48.654;9.250;2022-12-16T23:19:29;16.10;;;8.63;;
2201;SDS011;1107;48.654;9.250;2022-12-16T23:22:14;17.55;;;7.00;;
2201;SDS011;1107;48.654;9.250;2022-12-16T23:24:58;12.55;;;7.35;;
2201;SDS011;1107;48.654;9.250;2022-12-16T23:27:42;14.90;;;8.68;;
2201;SDS011;1107;48.654;9.250;2022-12-16T23:30:27;12.63;;;7.95;;
2201;SDS011;1107;48.654;9.250;2022-12-16T23:33:21;8.88;;;6.80;;
2201;SDS011;1107;48.654;9.250;2022-12-16T23:36:06;10.80;;;7.90;;
2201;SDS011;1107;48.654;9.250;2022-12-16T23:38:50;19.80;;;8.55;;
2201;SDS011;1107;48.654;9.250;2022-12-16T23:41:35;13.20;;;8.07;;
2201;SDS011;1107;48.654;9.250;2022-12-16T23:44:19;15.27;;;8.38;;
2201;SDS011;1107;48.654;9.250;2022-12-16T23:49:45;16.83;;;8.95;;
2201;SDS011;1107;48.654;9.250;2022-12-16T23:52:29;21.15;;;10.05;;
2201;SDS011;1107;48.654;9.250;2022-12-16T23:55:14;21.15;;;8.80;;
2201;SDS011;1107;48.654;9.250;2022-12-16T23:57:58;10.43;;;7.93;;
